createdAt,value
2022-10-07T00:01:17.882Z,58.34
2022-10-07T00:03:46.276Z,58.25
2022-10-07T00:06:16.578Z,58.60
2022-10-07T00:08:49.399Z,58.55
2022-10-07T00:11:21.771Z,58.80
2022-10-07T00:13:52.896Z,58.82
2022-10-07T00:16:24.631Z,58.83
2022-10-07T00:18:54.851Z,58.64
2022-10-07T00:21:23.188Z,58.69
2022-10-07T00:23:51.704Z,58.54
2022-10-07T00:26:23.346Z,59.15
2022-10-07T00:28:52.158Z,59.17
2022-10-07T00:31:23.653Z,59.22
2022-10-07T00:33:53.127Z,59.45
2022-10-07T00:36:24.935Z,59.46
2022-10-07T00:38:56.168Z,59.47
2022-10-07T00:41:28.245Z,59.05
2022-10-07T00:43:57.506Z,59.08
2022-10-07T00:46:32.666Z,59.12
2022-10-07T00:49:03.636Z,59.28
2022-10-07T00:51:33.566Z,59.44
2022-10-07T00:54:04.611Z,59.23
2022-10-07T00:56:35.553Z,59.16
2022-10-07T00:59:06.070Z,59.11
2022-10-07T01:01:35.187Z,59.05
2022-10-07T01:04:03.804Z,59.00
2022-10-07T01:06:32.144Z,59.20
2022-10-07T01:09:00.660Z,59.39
2022-10-07T01:11:41.128Z,59.75
2022-10-07T01:14:14.232Z,59.52
2022-10-07T01:16:54.218Z,59.36
2022-10-07T01:19:47.272Z,59.14
2022-10-07T01:22:27.187Z,59.28
2022-10-07T01:25:07.728Z,59.47
2022-10-07T01:27:38.576Z,59.51
2022-10-07T01:30:09.475Z,59.37
2022-10-07T01:32:41.885Z,59.25
2022-10-07T01:35:14.679Z,59.11
2022-10-07T01:37:48.726Z,59.21
2022-10-07T01:40:21.062Z,59.19
2022-10-07T01:42:52.449Z,59.25
2022-10-07T01:45:23.579Z,59.17
2022-10-07T01:47:52.403Z,59.24
2022-10-07T01:50:25.320Z,59.18
2022-10-07T01:53:06.651Z,59.63
2022-10-07T01:55:47.169Z,59.40
2022-10-07T01:58:32.367Z,59.61
2022-10-07T02:01:10.378Z,59.35
2022-10-07T02:03:55.665Z,59.41
2022-10-07T02:06:37.680Z,59.28
2022-10-07T02:09:13.367Z,59.35
2022-10-07T02:11:44.944Z,59.23
2022-10-07T02:14:19.172Z,59.46
2022-10-07T02:16:51.582Z,59.38
2022-10-07T02:19:23.677Z,59.48
2022-10-07T02:21:54.692Z,59.57
2022-10-07T02:24:26.320Z,59.57
2022-10-07T02:26:56.359Z,59.43
2022-10-07T02:29:29.726Z,59.41
2022-10-07T02:32:01.190Z,59.42
2022-10-07T02:34:31.811Z,59.36
2022-10-07T02:37:03.794Z,58.98
2022-10-07T02:39:32.288Z,59.33
2022-10-07T02:42:06.335Z,59.30
2022-10-07T02:44:41.307Z,59.21
2022-10-07T02:47:17.152Z,59.64
2022-10-07T02:49:48.154Z,59.62
2022-10-07T02:52:20.083Z,59.94
2022-10-07T02:54:54.435Z,59.61
2022-10-07T02:57:25.255Z,59.42
2022-10-07T02:59:57.666Z,59.48
2022-10-07T03:02:31.698Z,59.52
2022-10-07T03:05:00.322Z,59.76
2022-10-07T03:07:30.045Z,59.78
2022-10-07T03:09:58.508Z,59.77
2022-10-07T03:12:26.890Z,59.53
2022-10-07T03:14:56.979Z,59.48
2022-10-07T03:17:25.498Z,59.39
2022-10-07T03:19:53.858Z,59.69
2022-10-07T03:22:22.276Z,59.35
2022-10-07T03:24:50.654Z,59.49
2022-10-07T03:27:19.553Z,59.32
2022-10-07T03:29:49.022Z,59.45
2022-10-07T03:32:19.486Z,59.41
2022-10-07T03:34:47.763Z,59.81
2022-10-07T03:37:16.154Z,59.36
2022-10-07T03:39:44.476Z,59.64
2022-10-07T03:42:13.572Z,59.47
2022-10-07T03:44:42.030Z,59.43
2022-10-07T03:47:11.275Z,59.48
2022-10-07T03:49:41.738Z,59.79
2022-10-07T03:52:10.107Z,59.55
2022-10-07T03:54:38.422Z,59.76
2022-10-07T03:57:28.385Z,59.82
2022-10-07T03:59:56.959Z,59.93
2022-10-07T04:02:27.006Z,59.69
2022-10-07T04:04:57.419Z,59.84
2022-10-07T04:07:25.975Z,59.87
2022-10-07T04:09:54.251Z,60.05
2022-10-07T04:12:23.143Z,60.06
2022-10-07T04:14:52.200Z,59.68
2022-10-07T04:17:21.988Z,59.72
2022-10-07T04:19:50.330Z,59.71
2022-10-07T04:22:20.309Z,59.44
2022-10-07T04:25:09.007Z,59.55
2022-10-07T04:27:51.039Z,59.77
2022-10-07T04:30:20.431Z,59.76
2022-10-07T04:32:50.873Z,59.75
2022-10-07T04:35:19.754Z,60.13
2022-10-07T04:37:51.659Z,60.26
2022-10-07T04:40:21.139Z,60.40
2022-10-07T04:43:07.590Z,60.38
2022-10-07T04:45:36.671Z,60.53
2022-10-07T04:48:07.025Z,60.54
2022-10-07T04:50:38.755Z,60.78
2022-10-07T04:53:10.049Z,61.02
2022-10-07T04:55:39.034Z,61.30
2022-10-07T04:58:07.763Z,61.06
2022-10-07T05:00:36.800Z,60.84
2022-10-07T05:03:05.250Z,60.93
2022-10-07T05:05:34.643Z,60.90
2022-10-07T05:08:03.330Z,61.19
2022-10-07T05:10:33.089Z,61.37
2022-10-07T05:13:01.453Z,61.60
2022-10-07T05:15:30.100Z,62.06
2022-10-07T05:17:58.591Z,62.09
2022-10-07T05:20:27.177Z,62.32
2022-10-07T05:22:55.674Z,62.30
2022-10-07T05:25:24.438Z,62.37
2022-10-07T05:27:55.314Z,62.38
2022-10-07T05:30:23.806Z,62.37
2022-10-07T05:32:54.768Z,62.39
2022-10-07T05:35:23.256Z,62.28
2022-10-07T05:37:54.789Z,62.42
2022-10-07T05:40:23.435Z,62.36
2022-10-07T05:42:52.632Z,62.55
2022-10-07T05:45:22.625Z,62.54
2022-10-07T05:47:51.335Z,62.58
2022-10-07T05:50:19.647Z,62.46
2022-10-07T05:52:51.001Z,62.58
2022-10-07T05:55:19.903Z,62.48
2022-10-07T05:57:49.056Z,62.72
2022-10-07T06:00:18.015Z,62.87
2022-10-07T06:02:47.937Z,62.67
2022-10-07T06:05:16.506Z,62.91
2022-10-07T06:07:44.995Z,62.78
2022-10-07T06:10:30.979Z,62.71
2022-10-07T06:13:11.130Z,62.79
2022-10-07T06:15:39.535Z,62.73
2022-10-07T06:18:09.214Z,62.58
2022-10-07T06:20:37.869Z,62.68
2022-10-07T06:23:07.118Z,62.92
2022-10-07T06:25:35.867Z,62.44
2022-10-07T06:28:04.593Z,62.50
2022-10-07T06:30:33.887Z,62.42
2022-10-07T06:33:02.280Z,62.30
2022-10-07T06:35:31.951Z,62.14
2022-10-07T06:38:00.323Z,62.12
2022-10-07T06:40:28.860Z,62.06
2022-10-07T06:42:57.183Z,61.79
2022-10-07T06:45:25.914Z,61.50
2022-10-07T06:47:54.395Z,61.45
2022-10-07T06:50:22.806Z,61.25
2022-10-07T06:52:52.575Z,61.44
2022-10-07T06:55:21.374Z,61.62
2022-10-07T06:57:49.660Z,61.37
2022-10-07T07:00:18.379Z,61.46
2022-10-07T07:02:46.878Z,61.41
2022-10-07T07:05:16.568Z,61.54
2022-10-07T07:07:45.150Z,61.51
2022-10-07T07:10:15.118Z,61.68
2022-10-07T07:12:43.801Z,61.66
2022-10-07T07:15:12.457Z,61.66
2022-10-07T07:17:40.791Z,61.64
2022-10-07T07:20:09.835Z,61.49
2022-10-07T07:22:38.346Z,61.66
2022-10-07T07:25:07.374Z,61.69
2022-10-07T07:27:37.283Z,61.85
2022-10-07T07:30:06.735Z,61.96
2022-10-07T07:32:35.046Z,62.16
2022-10-07T07:35:04.751Z,62.15
2022-10-07T07:37:33.768Z,62.31
2022-10-07T07:40:02.127Z,62.45
2022-10-07T07:42:39.064Z,62.51
2022-10-07T07:45:10.044Z,62.45
2022-10-07T07:47:38.399Z,62.36
2022-10-07T07:50:08.156Z,62.25
2022-10-07T07:52:36.663Z,62.34
2022-10-07T07:55:05.405Z,62.36
2022-10-07T07:57:33.803Z,62.38
2022-10-07T08:00:02.288Z,62.34
2022-10-07T08:02:32.405Z,62.19
2022-10-07T08:05:00.849Z,62.28
2022-10-07T08:07:29.228Z,62.15
2022-10-07T08:09:57.518Z,62.08
2022-10-07T08:12:25.968Z,62.07
2022-10-07T08:14:54.553Z,62.00
2022-10-07T08:17:23.143Z,62.03
2022-10-07T08:19:54.766Z,61.77
2022-10-07T08:22:23.171Z,61.80
2022-10-07T08:24:51.516Z,61.78
2022-10-07T08:27:20.651Z,61.78
2022-10-07T08:29:49.688Z,61.48
2022-10-07T08:32:18.095Z,61.31
2022-10-07T08:34:46.436Z,61.17
2022-10-07T08:37:16.613Z,61.27
2022-10-07T08:39:44.871Z,61.24
2022-10-07T08:42:20.930Z,61.13
2022-10-07T08:44:51.643Z,60.49
2022-10-07T08:47:30.556Z,60.22
2022-10-07T08:50:05.315Z,60.04
2022-10-07T08:52:45.586Z,59.56
2022-10-07T08:55:20.412Z,59.65
2022-10-07T08:58:12.327Z,59.50
2022-10-07T09:00:45.180Z,58.86
2022-10-07T09:03:25.279Z,58.84
2022-10-07T09:05:56.514Z,58.46
2022-10-07T09:08:32.570Z,58.13
2022-10-07T09:11:15.998Z,58.02
2022-10-07T09:13:49.926Z,57.98
2022-10-07T09:16:23.433Z,57.88
2022-10-07T09:18:54.531Z,58.12
2022-10-07T09:21:26.064Z,58.36
2022-10-07T09:23:58.838Z,57.97
2022-10-07T09:26:28.290Z,57.91
2022-10-07T09:28:57.031Z,58.00
2022-10-07T09:31:26.725Z,58.27
2022-10-07T09:33:55.535Z,57.93
2022-10-07T09:36:25.462Z,57.27
2022-10-07T09:38:53.974Z,57.24
2022-10-07T09:41:32.020Z,56.87
2022-10-07T09:44:05.484Z,56.79
2022-10-07T09:46:53.471Z,56.87
2022-10-07T09:49:36.310Z,56.82
2022-10-07T09:52:06.888Z,56.72
2022-10-07T09:54:37.180Z,56.67
2022-10-07T09:57:07.334Z,56.37
2022-10-07T09:59:36.992Z,56.28
2022-10-07T10:02:22.543Z,56.10
2022-10-07T10:04:53.859Z,55.82
2022-10-07T10:07:27.101Z,55.42
2022-10-07T10:09:58.018Z,54.89
2022-10-07T10:12:27.980Z,53.04
2022-10-07T10:14:59.595Z,53.02
2022-10-07T10:17:34.735Z,52.77
2022-10-07T10:20:29.305Z,52.61
2022-10-07T10:22:58.475Z,53.09
2022-10-07T10:25:58.610Z,52.72
2022-10-07T10:28:39.187Z,52.42
2022-10-07T10:31:17.406Z,52.04
2022-10-07T10:33:51.800Z,52.09
2022-10-07T10:36:23.597Z,52.16
2022-10-07T10:39:02.002Z,52.01
2022-10-07T10:41:37.560Z,51.78
2022-10-07T10:44:36.296Z,51.42
2022-10-07T10:47:15.022Z,51.27
2022-10-07T10:49:54.787Z,51.18
2022-10-07T10:52:35.567Z,51.03
2022-10-07T10:55:42.317Z,50.55
2022-10-07T10:58:25.042Z,50.56
2022-10-07T11:01:03.306Z,49.94
2022-10-07T11:03:45.314Z,49.85
2022-10-07T11:06:18.270Z,50.07
2022-10-07T11:08:48.630Z,49.54
2022-10-07T11:11:19.634Z,49.11
2022-10-07T11:13:54.564Z,49.51
2022-10-07T11:16:29.144Z,49.26
2022-10-07T11:19:02.980Z,49.35
2022-10-07T11:21:38.121Z,48.91
2022-10-07T11:24:15.227Z,49.20
2022-10-07T11:26:52.312Z,48.67
2022-10-07T11:29:30.609Z,49.02
2022-10-07T11:32:08.279Z,49.24
2022-10-07T11:34:45.236Z,49.34
2022-10-07T11:37:19.087Z,49.12
2022-10-07T11:39:54.835Z,48.97
2022-10-07T11:42:26.091Z,48.92
2022-10-07T11:45:01.905Z,49.17
2022-10-07T11:47:35.562Z,48.90
2022-10-07T11:50:07.972Z,49.09
2022-10-07T11:52:42.772Z,48.79
2022-10-07T11:55:19.971Z,48.46
2022-10-07T11:57:54.251Z,48.02
2022-10-07T12:00:28.710Z,48.35
2022-10-07T12:02:59.288Z,48.29
2022-10-07T12:06:02.923Z,47.85
2022-10-07T12:08:34.454Z,48.04
2022-10-07T12:11:45.726Z,47.88
2022-10-07T12:14:36.529Z,48.04
2022-10-07T12:17:23.478Z,47.74
2022-10-07T12:20:27.854Z,47.84
2022-10-07T12:23:49.518Z,47.66
2022-10-07T12:26:47.443Z,47.31
2022-10-07T12:29:32.749Z,47.73
2022-10-07T12:32:01.982Z,47.01
2022-10-07T12:34:41.338Z,47.01
2022-10-07T12:37:45.725Z,47.10
2022-10-07T12:40:19.518Z,47.19
2022-10-07T12:42:54.956Z,46.54
2022-10-07T12:45:28.586Z,47.04
2022-10-07T12:47:59.561Z,47.50
2022-10-07T12:50:32.936Z,47.60
2022-10-07T12:53:04.306Z,47.43
2022-10-07T12:55:38.524Z,47.22
2022-10-07T12:58:43.567Z,47.24
2022-10-07T13:01:25.399Z,47.54
2022-10-07T13:04:11.736Z,47.31
2022-10-07T13:07:15.379Z,47.35
2022-10-07T13:10:10.151Z,47.45
2022-10-07T13:12:48.131Z,47.60
2022-10-07T13:15:26.417Z,47.30
2022-10-07T13:18:08.562Z,47.42
2022-10-07T13:20:46.391Z,47.50
2022-10-07T13:23:17.646Z,47.18
2022-10-07T13:25:49.495Z,46.95
2022-10-07T13:28:21.721Z,47.34
2022-10-07T13:30:52.029Z,47.30
2022-10-07T13:33:28.396Z,47.13
2022-10-07T13:36:18.237Z,47.12
2022-10-07T13:38:48.051Z,47.06
2022-10-07T13:41:22.055Z,47.03
2022-10-07T13:43:54.720Z,47.23
2022-10-07T13:46:25.216Z,46.98
2022-10-07T13:48:56.598Z,47.39
2022-10-07T13:51:31.502Z,46.93
2022-10-07T13:54:01.928Z,47.04
2022-10-07T13:56:34.939Z,47.23
2022-10-07T13:59:06.946Z,47.57
2022-10-07T14:01:40.366Z,47.44
2022-10-07T14:04:21.431Z,47.37
2022-10-07T14:06:53.798Z,47.79
2022-10-07T14:09:26.463Z,47.75
2022-10-07T14:11:58.251Z,48.10
2022-10-07T14:14:28.791Z,47.82
2022-10-07T14:17:00.519Z,47.94
2022-10-07T14:19:33.776Z,48.11
2022-10-07T14:22:04.671Z,48.04
2022-10-07T14:24:33.563Z,48.23
2022-10-07T14:27:02.473Z,48.15
2022-10-07T14:29:39.302Z,48.12
2022-10-07T14:32:30.541Z,48.07
2022-10-07T14:35:23.221Z,48.27
2022-10-07T14:37:51.587Z,48.63
2022-10-07T14:40:23.374Z,48.84
2022-10-07T14:42:54.554Z,48.83
2022-10-07T14:45:23.948Z,49.08
2022-10-07T14:47:52.571Z,49.22
2022-10-07T14:50:22.959Z,49.39
2022-10-07T14:52:53.372Z,49.40
2022-10-07T14:55:25.387Z,49.50
2022-10-07T14:57:54.252Z,49.59
2022-10-07T15:00:24.361Z,49.81
2022-10-07T15:02:53.667Z,49.84
2022-10-07T15:05:23.906Z,50.15
2022-10-07T15:07:52.321Z,50.00
2022-10-07T15:10:23.410Z,50.23
2022-10-07T15:12:52.372Z,50.54
2022-10-07T15:15:21.128Z,50.36
2022-10-07T15:17:49.791Z,50.38
2022-10-07T15:20:19.174Z,50.63
2022-10-07T15:22:49.271Z,50.72
2022-10-07T15:25:18.235Z,50.86
2022-10-07T15:27:46.608Z,50.62
2022-10-07T15:30:15.405Z,51.06
2022-10-07T15:32:44.383Z,51.33
2022-10-07T15:35:13.358Z,51.54
2022-10-07T15:37:46.246Z,51.62
2022-10-07T15:40:16.094Z,51.65
2022-10-07T15:42:45.327Z,51.82
2022-10-07T15:45:14.134Z,51.74
2022-10-07T15:47:42.520Z,51.85
2022-10-07T15:50:11.590Z,51.96
2022-10-07T15:52:40.023Z,52.11
2022-10-07T15:55:09.196Z,52.28
2022-10-07T15:57:39.010Z,52.33
2022-10-07T16:00:08.497Z,52.43
2022-10-07T16:02:36.884Z,52.46
2022-10-07T16:05:06.232Z,52.53
2022-10-07T16:07:35.134Z,52.81
2022-10-07T16:10:03.701Z,52.83
2022-10-07T16:12:32.386Z,52.90
2022-10-07T16:15:05.581Z,52.88
2022-10-07T16:17:34.243Z,53.12
2022-10-07T16:20:07.682Z,53.38
2022-10-07T16:22:39.522Z,53.49
2022-10-07T16:25:09.916Z,53.67
2022-10-07T16:27:55.655Z,53.82
2022-10-07T16:30:49.268Z,54.00
2022-10-07T16:33:18.827Z,54.07
2022-10-07T16:35:47.260Z,54.25
2022-10-07T16:38:15.735Z,54.38
2022-10-07T16:40:54.097Z,54.60
2022-10-07T16:43:23.004Z,54.69
2022-10-07T16:45:52.999Z,54.95
2022-10-07T16:48:22.344Z,55.01
2022-10-07T16:50:50.938Z,55.21
2022-10-07T16:53:19.260Z,55.47
2022-10-07T16:55:47.745Z,55.53
2022-10-07T16:58:16.400Z,55.69
2022-10-07T17:00:45.154Z,55.84
2022-10-07T17:03:15.202Z,55.81
2022-10-07T17:05:43.692Z,56.02
2022-10-07T17:08:12.378Z,56.14
2022-10-07T17:10:41.876Z,56.17
2022-10-07T17:13:10.378Z,56.38
2022-10-07T17:15:41.368Z,56.60
2022-10-07T17:18:09.768Z,56.70
2022-10-07T17:20:40.387Z,56.90
2022-10-07T17:23:09.115Z,56.94
2022-10-07T17:25:40.480Z,57.02
2022-10-07T17:28:08.970Z,57.28
2022-10-07T17:30:37.385Z,57.45
2022-10-07T17:33:05.962Z,57.72
2022-10-07T17:35:34.838Z,57.83
2022-10-07T17:38:06.405Z,58.19
2022-10-07T17:40:36.791Z,58.25
2022-10-07T17:43:07.764Z,58.48
2022-10-07T17:45:36.787Z,58.47
2022-10-07T17:48:05.580Z,58.48
2022-10-07T17:50:39.321Z,58.67
2022-10-07T17:53:09.072Z,59.16
2022-10-07T17:55:37.915Z,58.84
2022-10-07T17:58:07.010Z,58.93
2022-10-07T18:00:38.500Z,59.00
2022-10-07T18:03:07.330Z,58.94
2022-10-07T18:05:36.110Z,59.20
2022-10-07T18:08:04.946Z,59.31
2022-10-07T18:10:35.312Z,59.52
2022-10-07T18:13:20.890Z,59.64
2022-10-07T18:15:59.072Z,59.58
2022-10-07T18:18:29.887Z,59.68
2022-10-07T18:20:58.892Z,59.69
2022-10-07T18:23:29.689Z,59.65
2022-10-07T18:26:02.908Z,59.68
2022-10-07T18:28:35.819Z,59.61
2022-10-07T18:31:10.844Z,59.62
2022-10-07T18:33:43.168Z,59.49
2022-10-07T18:36:16.342Z,59.50
2022-10-07T18:38:47.484Z,59.46
2022-10-07T18:41:20.232Z,59.36
2022-10-07T18:43:50.899Z,59.67
2022-10-07T18:46:21.424Z,59.61
2022-10-07T18:48:51.274Z,59.67
2022-10-07T18:51:21.039Z,59.65
2022-10-07T18:53:50.393Z,59.63
2022-10-07T18:56:23.918Z,59.60
2022-10-07T18:58:55.399Z,59.83
2022-10-07T19:01:26.648Z,59.69
2022-10-07T19:03:57.655Z,59.71
2022-10-07T19:06:28.129Z,59.89
2022-10-07T19:09:00.091Z,59.84
2022-10-07T19:11:31.295Z,59.94
2022-10-07T19:14:00.328Z,59.96
2022-10-07T19:16:35.457Z,59.99
2022-10-07T19:19:08.732Z,60.16
2022-10-07T19:21:39.408Z,60.25
2022-10-07T19:24:09.263Z,60.43
2022-10-07T19:26:42.470Z,60.46
2022-10-07T19:29:12.283Z,60.43
2022-10-07T19:31:42.697Z,60.49
2022-10-07T19:34:13.911Z,60.46
2022-10-07T19:36:47.643Z,60.49
2022-10-07T19:39:17.892Z,60.97
2022-10-07T19:41:49.160Z,60.83
2022-10-07T19:44:17.993Z,60.97
2022-10-07T19:46:46.927Z,60.85
2022-10-07T19:49:17.210Z,61.04
2022-10-07T19:51:47.011Z,61.10
2022-10-07T19:54:15.625Z,61.21
2022-10-07T19:56:45.977Z,61.28
2022-10-07T19:59:16.475Z,61.28
2022-10-07T20:01:47.620Z,61.39
2022-10-07T20:04:18.725Z,61.65
2022-10-07T20:06:47.081Z,61.62
2022-10-07T20:09:17.826Z,61.71
2022-10-07T20:11:46.988Z,61.79
2022-10-07T20:14:17.189Z,61.71
2022-10-07T20:16:45.865Z,61.93
2022-10-07T20:19:15.990Z,61.73
2022-10-07T20:21:44.425Z,61.83
2022-10-07T20:24:15.676Z,61.72
2022-10-07T20:26:45.324Z,61.84
2022-10-07T20:29:16.326Z,61.88
2022-10-07T20:31:46.410Z,61.92
2022-10-07T20:34:16.617Z,61.96
2022-10-07T20:36:45.457Z,62.10
2022-10-07T20:39:36.074Z,62.08
2022-10-07T20:42:24.521Z,62.13
2022-10-07T20:44:54.228Z,62.28
2022-10-07T20:47:26.396Z,62.57
2022-10-07T20:49:56.813Z,62.49
2022-10-07T20:52:27.802Z,62.61
2022-10-07T20:54:56.411Z,62.80
2022-10-07T20:57:26.319Z,62.86
2022-10-07T20:59:54.980Z,62.93
2022-10-07T21:02:25.691Z,62.92
2022-10-07T21:04:54.127Z,63.00
2022-10-07T21:07:22.888Z,62.99
2022-10-07T21:09:51.290Z,63.28
2022-10-07T21:12:19.844Z,63.48
2022-10-07T21:14:48.982Z,63.42
2022-10-07T21:17:18.243Z,63.42
2022-10-07T21:19:48.015Z,63.61
2022-10-07T21:22:16.394Z,63.86
2022-10-07T21:24:45.145Z,64.02
2022-10-07T21:27:13.951Z,64.04
2022-10-07T21:29:47.960Z,64.12
2022-10-07T21:32:16.988Z,64.31
2022-10-07T21:34:45.300Z,64.52
2022-10-07T21:37:15.138Z,64.61
2022-10-07T21:39:43.810Z,64.56
2022-10-07T21:42:12.186Z,64.85
2022-10-07T21:44:40.614Z,65.00
2022-10-07T21:47:08.900Z,65.13
2022-10-07T21:49:37.296Z,65.08
2022-10-07T21:52:05.706Z,65.52
2022-10-07T21:54:38.541Z,66.03
2022-10-07T21:57:07.030Z,65.96
2022-10-07T21:59:35.600Z,65.89
2022-10-07T22:02:04.298Z,65.78
2022-10-07T22:04:32.752Z,65.80
2022-10-07T22:07:18.155Z,65.94
2022-10-07T22:09:47.940Z,65.69
2022-10-07T22:12:16.658Z,65.40
2022-10-07T22:14:44.927Z,65.41
2022-10-07T22:17:14.428Z,65.46
2022-10-07T22:19:43.215Z,65.31
2022-10-07T22:22:13.076Z,65.27
2022-10-07T22:24:41.455Z,65.38
2022-10-07T22:27:11.202Z,65.18
2022-10-07T22:29:39.558Z,65.04
2022-10-07T22:32:07.894Z,65.17
2022-10-07T22:34:53.580Z,64.65
2022-10-07T22:37:21.948Z,64.61
2022-10-07T22:39:50.423Z,64.77
2022-10-07T22:42:20.237Z,64.56
2022-10-07T22:44:48.615Z,64.33
2022-10-07T22:47:16.935Z,64.62
2022-10-07T22:49:45.692Z,64.45
2022-10-07T22:52:13.974Z,64.48
2022-10-07T22:54:42.373Z,63.99
2022-10-07T22:57:10.904Z,63.93
2022-10-07T22:59:40.590Z,63.69
2022-10-07T23:02:10.636Z,63.78
2022-10-07T23:04:39.079Z,63.91
2022-10-07T23:07:07.616Z,63.81
2022-10-07T23:09:36.107Z,63.83
2022-10-07T23:12:05.964Z,63.72
2022-10-07T23:14:34.614Z,63.90
2022-10-07T23:17:04.767Z,64.11
2022-10-07T23:19:33.440Z,64.24
2022-10-07T23:22:01.743Z,64.05
2022-10-07T23:24:30.418Z,63.68
2022-10-07T23:26:59.050Z,63.65
2022-10-07T23:29:27.877Z,63.81
2022-10-07T23:31:56.264Z,64.15
2022-10-07T23:34:26.120Z,64.35
2022-10-07T23:36:55.416Z,64.40
2022-10-07T23:39:23.862Z,64.55
2022-10-07T23:41:52.510Z,64.55
2022-10-07T23:44:23.094Z,64.54
2022-10-07T23:46:52.030Z,64.32
2022-10-07T23:49:20.422Z,64.03
2022-10-07T23:51:50.561Z,64.39
2022-10-07T23:54:19.043Z,65.01
2022-10-07T23:56:47.323Z,64.93
2022-10-07T23:59:15.618Z,64.70
